<?xml version="1.0" encoding="UTF-8" standalone="no" ?>
<gpx xmlns="http://www.topografix.com/GPX/1/1" xmlns:xsi="http://www.w3.org/2001/XMLSchema-instance" xsi:schemaLocation="http://www.topografix.com/GPX/1/1 http://www.topografix.com/GPX/1/1/gpx.xsd" version="1.1" creator="VisuGPX - https://www.visugpx.com">
  <metadata>
    <name>pr3 randonnees desaignes</name>
    <desc><![CDATA[clôture souberand manque balisage au murier retours desaignes]]></desc>
  </metadata>
  <trk>
    <name><![CDATA[Tracé 31 oct. 2015 08:32:05]]></name>
    <trkseg>
      <trkpt lat="44.99932" lon="4.51104">
        <ele>641</ele>
        <time>2015-10-31T07:32:05Z</time>
      </trkpt>
      <trkpt lat="44.99934" lon="4.51108">
        <ele>654</ele>
        <time>2015-10-31T07:32:33Z</time>
      </trkpt>
      <trkpt lat="44.99563" lon="4.5186">
        <ele>808</ele>
        <time>2015-10-31T07:32:37Z</time>
      </trkpt>
      <trkpt lat="44.99555" lon="4.51868">
        <ele>815</ele>
        <time>2015-10-31T07:32:42Z</time>
      </trkpt>
      <trkpt lat="44.99554" lon="4.51868">
        <ele>816</ele>
        <time>2015-10-31T07:32:51Z</time>
      </trkpt>
      <trkpt lat="44.99542" lon="4.51872">
        <ele>800</ele>
        <time>2015-10-31T07:32:55Z</time>
      </trkpt>
      <trkpt lat="44.99545" lon="4.5188">
        <ele>800</ele>
        <time>2015-10-31T07:33:08Z</time>
      </trkpt>
      <trkpt lat="44.99549" lon="4.51885">
        <ele>800</ele>
        <time>2015-10-31T07:33:12Z</time>
      </trkpt>
      <trkpt lat="44.99556" lon="4.51893">
        <ele>799</ele>
        <time>2015-10-31T07:33:18Z</time>
      </trkpt>
      <trkpt lat="44.99513" lon="4.51923">
        <ele>792</ele>
        <time>2015-10-31T07:33:23Z</time>
      </trkpt>
      <trkpt lat="44.99512" lon="4.51926">
        <ele>791</ele>
        <time>2015-10-31T07:33:24Z</time>
      </trkpt>
      <trkpt lat="44.99502" lon="4.51948">
        <ele>789</ele>
        <time>2015-10-31T07:33:29Z</time>
      </trkpt>
      <trkpt lat="44.99497" lon="4.51961">
        <ele>787</ele>
        <time>2015-10-31T07:33:33Z</time>
      </trkpt>
      <trkpt lat="44.99493" lon="4.51966">
        <ele>787</ele>
        <time>2015-10-31T07:33:38Z</time>
      </trkpt>
      <trkpt lat="44.99484" lon="4.5198">
        <ele>784</ele>
        <time>2015-10-31T07:33:50Z</time>
      </trkpt>
      <trkpt lat="44.99481" lon="4.51989">
        <ele>783</ele>
        <time>2015-10-31T07:33:56Z</time>
      </trkpt>
      <trkpt lat="44.99466" lon="4.51988">
        <ele>782</ele>
        <time>2015-10-31T07:34:01Z</time>
      </trkpt>
      <trkpt lat="44.9946" lon="4.51989">
        <ele>782</ele>
        <time>2015-10-31T07:34:06Z</time>
      </trkpt>
      <trkpt lat="44.99447" lon="4.5201">
        <ele>779</ele>
        <time>2015-10-31T07:34:21Z</time>
      </trkpt>
      <trkpt lat="44.99445" lon="4.52013">
        <ele>779</ele>
        <time>2015-10-31T07:34:22Z</time>
      </trkpt>
      <trkpt lat="44.99413" lon="4.51988">
        <ele>776</ele>
        <time>2015-10-31T07:34:34Z</time>
      </trkpt>
      <trkpt lat="44.9941" lon="4.51977">
        <ele>775</ele>
        <time>2015-10-31T07:34:37Z</time>
      </trkpt>
      <trkpt lat="44.99405" lon="4.51967">
        <ele>773</ele>
        <time>2015-10-31T07:34:49Z</time>
      </trkpt>
      <trkpt lat="44.99403" lon="4.51964">
        <ele>773</ele>
        <time>2015-10-31T07:34:52Z</time>
      </trkpt>
      <trkpt lat="44.99441" lon="4.51934">
        <ele>772</ele>
        <time>2015-10-31T07:34:57Z</time>
      </trkpt>
      <trkpt lat="44.99441" lon="4.51927">
        <ele>772</ele>
        <time>2015-10-31T07:35:06Z</time>
      </trkpt>
      <trkpt lat="44.99445" lon="4.51917">
        <ele>771</ele>
        <time>2015-10-31T07:35:10Z</time>
      </trkpt>
      <trkpt lat="44.99431" lon="4.51943">
        <ele>771</ele>
        <time>2015-10-31T07:35:13Z</time>
      </trkpt>
      <trkpt lat="44.99414" lon="4.51951">
        <ele>770</ele>
        <time>2015-10-31T07:35:18Z</time>
      </trkpt>
      <trkpt lat="44.99405" lon="4.51955">
        <ele>769</ele>
        <time>2015-10-31T07:35:22Z</time>
      </trkpt>
      <trkpt lat="44.99398" lon="4.51958">
        <ele>768</ele>
        <time>2015-10-31T07:35:27Z</time>
      </trkpt>
      <trkpt lat="44.9939" lon="4.51962">
        <ele>765</ele>
        <time>2015-10-31T07:35:36Z</time>
      </trkpt>
      <trkpt lat="44.99371" lon="4.51975">
        <ele>751</ele>
        <time>2015-10-31T07:35:41Z</time>
      </trkpt>
      <trkpt lat="44.99366" lon="4.51992">
        <ele>746</ele>
        <time>2015-10-31T07:35:45Z</time>
      </trkpt>
      <trkpt lat="44.99358" lon="4.51997">
        <ele>730</ele>
        <time>2015-10-31T07:35:57Z</time>
      </trkpt>
      <trkpt lat="44.99356" lon="4.52005">
        <ele>720</ele>
        <time>2015-10-31T07:36:04Z</time>
      </trkpt>
      <trkpt lat="44.99345" lon="4.52024">
        <ele>716</ele>
        <time>2015-10-31T07:36:08Z</time>
      </trkpt>
      <trkpt lat="44.99329" lon="4.52053">
        <ele>714</ele>
        <time>2015-10-31T07:36:12Z</time>
      </trkpt>
      <trkpt lat="44.99337" lon="4.52047">
        <ele>712</ele>
        <time>2015-10-31T07:36:16Z</time>
      </trkpt>
      <trkpt lat="44.99343" lon="4.52043">
        <ele>705</ele>
        <time>2015-10-31T07:36:21Z</time>
      </trkpt>
      <trkpt lat="44.99345" lon="4.52032">
        <ele>698</ele>
        <time>2015-10-31T07:36:27Z</time>
      </trkpt>
      <trkpt lat="44.99351" lon="4.52018">
        <ele>693</ele>
        <time>2015-10-31T07:36:31Z</time>
      </trkpt>
      <trkpt lat="44.99353" lon="4.52027">
        <ele>687</ele>
        <time>2015-10-31T07:36:36Z</time>
      </trkpt>
      <trkpt lat="44.99353" lon="4.52036">
        <ele>683</ele>
        <time>2015-10-31T07:36:40Z</time>
      </trkpt>
      <trkpt lat="44.99352" lon="4.52045">
        <ele>679</ele>
        <time>2015-10-31T07:36:44Z</time>
      </trkpt>
      <trkpt lat="44.9935" lon="4.52057">
        <ele>673</ele>
        <time>2015-10-31T07:36:50Z</time>
      </trkpt>
      <trkpt lat="44.99351" lon="4.52068">
        <ele>664</ele>
        <time>2015-10-31T07:37:00Z</time>
      </trkpt>
      <trkpt lat="44.99348" lon="4.52077">
        <ele>646</ele>
        <time>2015-10-31T07:37:16Z</time>
      </trkpt>
      <trkpt lat="44.99343" lon="4.52084">
        <ele>627</ele>
        <time>2015-10-31T07:37:27Z</time>
      </trkpt>
      <trkpt lat="44.99344" lon="4.52063">
        <ele>615</ele>
        <time>2015-10-31T07:37:31Z</time>
      </trkpt>
      <trkpt lat="44.99345" lon="4.52052">
        <ele>604</ele>
        <time>2015-10-31T07:37:36Z</time>
      </trkpt>
      <trkpt lat="44.99349" lon="4.52041">
        <ele>572</ele>
        <time>2015-10-31T07:37:47Z</time>
      </trkpt>
      <trkpt lat="44.99352" lon="4.52029">
        <ele>556</ele>
        <time>2015-10-31T07:37:52Z</time>
      </trkpt>
      <trkpt lat="44.99357" lon="4.5202">
        <ele>534</ele>
        <time>2015-10-31T07:37:59Z</time>
      </trkpt>
      <trkpt lat="44.99364" lon="4.52021">
        <ele>512</ele>
        <time>2015-10-31T07:38:11Z</time>
      </trkpt>
      <trkpt lat="44.99372" lon="4.52025">
        <ele>504</ele>
        <time>2015-10-31T07:38:19Z</time>
      </trkpt>
      <trkpt lat="44.99379" lon="4.52032">
        <ele>498</ele>
        <time>2015-10-31T07:38:27Z</time>
      </trkpt>
      <trkpt lat="44.99379" lon="4.52044">
        <ele>491</ele>
        <time>2015-10-31T07:38:33Z</time>
      </trkpt>
      <trkpt lat="44.99383" lon="4.52054">
        <ele>485</ele>
        <time>2015-10-31T07:38:38Z</time>
      </trkpt>
      <trkpt lat="44.99385" lon="4.52065">
        <ele>480</ele>
        <time>2015-10-31T07:38:43Z</time>
      </trkpt>
      <trkpt lat="44.99388" lon="4.52075">
        <ele>473</ele>
        <time>2015-10-31T07:38:49Z</time>
      </trkpt>
      <trkpt lat="44.9939" lon="4.52084">
        <ele>468</ele>
        <time>2015-10-31T07:38:54Z</time>
      </trkpt>
      <trkpt lat="44.99394" lon="4.52092">
        <ele>464</ele>
        <time>2015-10-31T07:38:59Z</time>
      </trkpt>
      <trkpt lat="44.99398" lon="4.52103">
        <ele>464</ele>
        <time>2015-10-31T07:39:05Z</time>
      </trkpt>
      <trkpt lat="44.99401" lon="4.52111">
        <ele>465</ele>
        <time>2015-10-31T07:39:09Z</time>
      </trkpt>
      <trkpt lat="44.99402" lon="4.52123">
        <ele>466</ele>
        <time>2015-10-31T07:39:12Z</time>
      </trkpt>
      <trkpt lat="44.99403" lon="4.52132">
        <ele>465</ele>
        <time>2015-10-31T07:39:16Z</time>
      </trkpt>
      <trkpt lat="44.99404" lon="4.52143">
        <ele>465</ele>
        <time>2015-10-31T07:39:20Z</time>
      </trkpt>
      <trkpt lat="44.99404" lon="4.52152">
        <ele>467</ele>
        <time>2015-10-31T07:39:24Z</time>
      </trkpt>
      <trkpt lat="44.99408" lon="4.52161">
        <ele>467</ele>
        <time>2015-10-31T07:39:28Z</time>
      </trkpt>
      <trkpt lat="44.9941" lon="4.52167">
        <ele>469</ele>
        <time>2015-10-31T07:39:31Z</time>
      </trkpt>
      <trkpt lat="44.99417" lon="4.52181">
        <ele>470</ele>
        <time>2015-10-31T07:39:36Z</time>
      </trkpt>
      <trkpt lat="44.99424" lon="4.5219">
        <ele>472</ele>
        <time>2015-10-31T07:39:40Z</time>
      </trkpt>
      <trkpt lat="44.9942" lon="4.52201">
        <ele>444</ele>
        <time>2015-10-31T07:39:58Z</time>
      </trkpt>
      <trkpt lat="44.99416" lon="4.52212">
        <ele>437</ele>
        <time>2015-10-31T07:40:06Z</time>
      </trkpt>
      <trkpt lat="44.99417" lon="4.52222">
        <ele>433</ele>
        <time>2015-10-31T07:40:11Z</time>
      </trkpt>
      <trkpt lat="44.99418" lon="4.52234">
        <ele>427</ele>
        <time>2015-10-31T07:40:17Z</time>
      </trkpt>
      <trkpt lat="44.99418" lon="4.52244">
        <ele>425</ele>
        <time>2015-10-31T07:40:22Z</time>
      </trkpt>
      <trkpt lat="44.99416" lon="4.52255">
        <ele>423</ele>
        <time>2015-10-31T07:40:28Z</time>
      </trkpt>
      <trkpt lat="44.99416" lon="4.52266">
        <ele>420</ele>
        <time>2015-10-31T07:40:34Z</time>
      </trkpt>
      <trkpt lat="44.99414" lon="4.52275">
        <ele>419</ele>
        <time>2015-10-31T07:40:38Z</time>
      </trkpt>
      <trkpt lat="44.99413" lon="4.52286">
        <ele>417</ele>
        <time>2015-10-31T07:40:44Z</time>
      </trkpt>
      <trkpt lat="44.99411" lon="4.52298">
        <ele>416</ele>
        <time>2015-10-31T07:40:50Z</time>
      </trkpt>
      <trkpt lat="44.99409" lon="4.52308">
        <ele>414</ele>
        <time>2015-10-31T07:40:57Z</time>
      </trkpt>
      <trkpt lat="44.99407" lon="4.5232">
        <ele>413</ele>
        <time>2015-10-31T07:41:03Z</time>
      </trkpt>
      <trkpt lat="44.99404" lon="4.5233">
        <ele>413</ele>
        <time>2015-10-31T07:41:08Z</time>
      </trkpt>
      <trkpt lat="44.99398" lon="4.52337">
        <ele>413</ele>
        <time>2015-10-31T07:41:14Z</time>
      </trkpt>
      <trkpt lat="44.99391" lon="4.52344">
        <ele>413</ele>
        <time>2015-10-31T07:41:25Z</time>
      </trkpt>
      <trkpt lat="44.99384" lon="4.5235">
        <ele>410</ele>
        <time>2015-10-31T07:41:34Z</time>
      </trkpt>
      <trkpt lat="44.99375" lon="4.52353">
        <ele>409</ele>
        <time>2015-10-31T07:41:42Z</time>
      </trkpt>
      <trkpt lat="44.99364" lon="4.52361">
        <ele>408</ele>
        <time>2015-10-31T07:41:47Z</time>
      </trkpt>
      <trkpt lat="44.99357" lon="4.52366">
        <ele>408</ele>
        <time>2015-10-31T07:41:53Z</time>
      </trkpt>
      <trkpt lat="44.99352" lon="4.52371">
        <ele>408</ele>
        <time>2015-10-31T07:41:57Z</time>
      </trkpt>
      <trkpt lat="44.99345" lon="4.52376">
        <ele>408</ele>
        <time>2015-10-31T07:42:06Z</time>
      </trkpt>
      <trkpt lat="44.99337" lon="4.52378">
        <ele>407</ele>
        <time>2015-10-31T07:42:14Z</time>
      </trkpt>
      <trkpt lat="44.99331" lon="4.52379">
        <ele>406</ele>
        <time>2015-10-31T07:42:20Z</time>
      </trkpt>
      <trkpt lat="44.99325" lon="4.52385">
        <ele>406</ele>
        <time>2015-10-31T07:42:26Z</time>
      </trkpt>
      <trkpt lat="44.99321" lon="4.52393">
        <ele>407</ele>
        <time>2015-10-31T07:42:31Z</time>
      </trkpt>
      <trkpt lat="44.99316" lon="4.52402">
        <ele>408</ele>
        <time>2015-10-31T07:42:35Z</time>
      </trkpt>
      <trkpt lat="44.99312" lon="4.52415">
        <ele>408</ele>
        <time>2015-10-31T07:42:40Z</time>
      </trkpt>
      <trkpt lat="44.99309" lon="4.52424">
        <ele>409</ele>
        <time>2015-10-31T07:42:46Z</time>
      </trkpt>
      <trkpt lat="44.99304" lon="4.5243">
        <ele>410</ele>
        <time>2015-10-31T07:42:52Z</time>
      </trkpt>
      <trkpt lat="44.993" lon="4.52438">
        <ele>411</ele>
        <time>2015-10-31T07:42:56Z</time>
      </trkpt>
      <trkpt lat="44.99296" lon="4.52446">
        <ele>412</ele>
        <time>2015-10-31T07:43:00Z</time>
      </trkpt>
      <trkpt lat="44.99293" lon="4.52454">
        <ele>414</ele>
        <time>2015-10-31T07:43:05Z</time>
      </trkpt>
      <trkpt lat="44.99289" lon="4.52465">
        <ele>415</ele>
        <time>2015-10-31T07:43:10Z</time>
      </trkpt>
      <trkpt lat="44.99288" lon="4.52477">
        <ele>416</ele>
        <time>2015-10-31T07:43:14Z</time>
      </trkpt>
      <trkpt lat="44.99285" lon="4.52485">
        <ele>417</ele>
        <time>2015-10-31T07:43:18Z</time>
      </trkpt>
      <trkpt lat="44.9928" lon="4.52496">
        <ele>419</ele>
        <time>2015-10-31T07:43:24Z</time>
      </trkpt>
      <trkpt lat="44.99278" lon="4.52503">
        <ele>420</ele>
        <time>2015-10-31T07:43:29Z</time>
      </trkpt>
      <trkpt lat="44.99274" lon="4.52512">
        <ele>421</ele>
        <time>2015-10-31T07:43:33Z</time>
      </trkpt>
      <trkpt lat="44.9927" lon="4.52523">
        <ele>423</ele>
        <time>2015-10-31T07:43:38Z</time>
      </trkpt>
      <trkpt lat="44.99266" lon="4.52532">
        <ele>424</ele>
        <time>2015-10-31T07:43:44Z</time>
      </trkpt>
      <trkpt lat="44.99263" lon="4.5254">
        <ele>424</ele>
        <time>2015-10-31T07:43:48Z</time>
      </trkpt>
      <trkpt lat="44.9926" lon="4.52548">
        <ele>425</ele>
        <time>2015-10-31T07:43:52Z</time>
      </trkpt>
      <trkpt lat="44.99258" lon="4.5256">
        <ele>427</ele>
        <time>2015-10-31T07:43:59Z</time>
      </trkpt>
      <trkpt lat="44.99253" lon="4.52569">
        <ele>429</ele>
        <time>2015-10-31T07:44:06Z</time>
      </trkpt>
      <trkpt lat="44.9925" lon="4.52579">
        <ele>429</ele>
        <time>2015-10-31T07:44:10Z</time>
      </trkpt>
      <trkpt lat="44.99246" lon="4.5259">
        <ele>431</ele>
        <time>2015-10-31T07:44:14Z</time>
      </trkpt>
      <trkpt lat="44.99241" lon="4.526">
        <ele>432</ele>
        <time>2015-10-31T07:44:21Z</time>
      </trkpt>
      <trkpt lat="44.99235" lon="4.52609">
        <ele>434</ele>
        <time>2015-10-31T07:44:27Z</time>
      </trkpt>
      <trkpt lat="44.9923" lon="4.52618">
        <ele>436</ele>
        <time>2015-10-31T07:44:33Z</time>
      </trkpt>
      <trkpt lat="44.99225" lon="4.52627">
        <ele>437</ele>
        <time>2015-10-31T07:44:38Z</time>
      </trkpt>
      <trkpt lat="44.99218" lon="4.52632">
        <ele>438</ele>
        <time>2015-10-31T07:44:44Z</time>
      </trkpt>
      <trkpt lat="44.99212" lon="4.52642">
        <ele>438</ele>
        <time>2015-10-31T07:44:49Z</time>
      </trkpt>
      <trkpt lat="44.99205" lon="4.52648">
        <ele>439</ele>
        <time>2015-10-31T07:44:54Z</time>
      </trkpt>
      <trkpt lat="44.99198" lon="4.52651">
        <ele>440</ele>
        <time>2015-10-31T07:45:00Z</time>
      </trkpt>
      <trkpt lat="44.99189" lon="4.52654">
        <ele>441</ele>
        <time>2015-10-31T07:45:09Z</time>
      </trkpt>
      <trkpt lat="44.99181" lon="4.52653">
        <ele>441</ele>
        <time>2015-10-31T07:45:15Z</time>
      </trkpt>
      <trkpt lat="44.99173" lon="4.52652">
        <ele>441</ele>
        <time>2015-10-31T07:45:20Z</time>
      </trkpt>
      <trkpt lat="44.99165" lon="4.52649">
        <ele>441</ele>
        <time>2015-10-31T07:45:34Z</time>
      </trkpt>
      <trkpt lat="44.9916" lon="4.52648">
        <ele>441</ele>
        <time>2015-10-31T07:45:38Z</time>
      </trkpt>
      <trkpt lat="44.99149" lon="4.52645">
        <ele>441</ele>
        <time>2015-10-31T07:45:43Z</time>
      </trkpt>
      <trkpt lat="44.99143" lon="4.52645">
        <ele>441</ele>
        <time>2015-10-31T07:45:46Z</time>
      </trkpt>
      <trkpt lat="44.99132" lon="4.52651">
        <ele>441</ele>
        <time>2015-10-31T07:45:51Z</time>
      </trkpt>
      <trkpt lat="44.99122" lon="4.52656">
        <ele>441</ele>
        <time>2015-10-31T07:45:55Z</time>
      </trkpt>
      <trkpt lat="44.99115" lon="4.52659">
        <ele>442</ele>
        <time>2015-10-31T07:45:58Z</time>
      </trkpt>
      <trkpt lat="44.99105" lon="4.5266">
        <ele>442</ele>
        <time>2015-10-31T07:46:02Z</time>
      </trkpt>
      <trkpt lat="44.99098" lon="4.52663">
        <ele>443</ele>
        <time>2015-10-31T07:46:08Z</time>
      </trkpt>
      <trkpt lat="44.99091" lon="4.52666">
        <ele>443</ele>
        <time>2015-10-31T07:46:12Z</time>
      </trkpt>
      <trkpt lat="44.99084" lon="4.52667">
        <ele>443</ele>
        <time>2015-10-31T07:46:16Z</time>
      </trkpt>
      <trkpt lat="44.99076" lon="4.52669">
        <ele>443</ele>
        <time>2015-10-31T07:46:23Z</time>
      </trkpt>
      <trkpt lat="44.99069" lon="4.52672">
        <ele>444</ele>
        <time>2015-10-31T07:46:30Z</time>
      </trkpt>
      <trkpt lat="44.99063" lon="4.52676">
        <ele>444</ele>
        <time>2015-10-31T07:46:36Z</time>
      </trkpt>
      <trkpt lat="44.99056" lon="4.52683">
        <ele>444</ele>
        <time>2015-10-31T07:46:47Z</time>
      </trkpt>
      <trkpt lat="44.99049" lon="4.52687">
        <ele>444</ele>
        <time>2015-10-31T07:47:00Z</time>
      </trkpt>
      <trkpt lat="44.99041" lon="4.52692">
        <ele>444</ele>
        <time>2015-10-31T07:47:04Z</time>
      </trkpt>
      <trkpt lat="44.99035" lon="4.52696">
        <ele>444</ele>
        <time>2015-10-31T07:47:08Z</time>
      </trkpt>
      <trkpt lat="44.99026" lon="4.52699">
        <ele>444</ele>
        <time>2015-10-31T07:47:12Z</time>
      </trkpt>
      <trkpt lat="44.99017" lon="4.52706">
        <ele>444</ele>
        <time>2015-10-31T07:47:16Z</time>
      </trkpt>
      <trkpt lat="44.9901" lon="4.52711">
        <ele>444</ele>
        <time>2015-10-31T07:47:20Z</time>
      </trkpt>
      <trkpt lat="44.99002" lon="4.52714">
        <ele>444</ele>
        <time>2015-10-31T07:47:24Z</time>
      </trkpt>
      <trkpt lat="44.98994" lon="4.52715">
        <ele>444</ele>
        <time>2015-10-31T07:47:28Z</time>
      </trkpt>
      <trkpt lat="44.98985" lon="4.52712">
        <ele>444</ele>
        <time>2015-10-31T07:47:32Z</time>
      </trkpt>
      <trkpt lat="44.98975" lon="4.52708">
        <ele>445</ele>
        <time>2015-10-31T07:47:36Z</time>
      </trkpt>
      <trkpt lat="44.98963" lon="4.52707">
        <ele>445</ele>
        <time>2015-10-31T07:47:40Z</time>
      </trkpt>
      <trkpt lat="44.98953" lon="4.52708">
        <ele>445</ele>
        <time>2015-10-31T07:47:44Z</time>
      </trkpt>
      <trkpt lat="44.98945" lon="4.5271">
        <ele>445</ele>
        <time>2015-10-31T07:47:48Z</time>
      </trkpt>
      <trkpt lat="44.98938" lon="4.52712">
        <ele>445</ele>
        <time>2015-10-31T07:47:52Z</time>
      </trkpt>
      <trkpt lat="44.98928" lon="4.52718">
        <ele>444</ele>
        <time>2015-10-31T07:47:57Z</time>
      </trkpt>
      <trkpt lat="44.98922" lon="4.52721">
        <ele>444</ele>
        <time>2015-10-31T07:48:00Z</time>
      </trkpt>
      <trkpt lat="44.98913" lon="4.52726">
        <ele>443</ele>
        <time>2015-10-31T07:48:04Z</time>
      </trkpt>
      <trkpt lat="44.98905" lon="4.52736">
        <ele>444</ele>
        <time>2015-10-31T07:48:08Z</time>
      </trkpt>
      <trkpt lat="44.98894" lon="4.52742">
        <ele>443</ele>
        <time>2015-10-31T07:48:13Z</time>
      </trkpt>
      <trkpt lat="44.98883" lon="4.5275">
        <ele>444</ele>
        <time>2015-10-31T07:48:18Z</time>
      </trkpt>
      <trkpt lat="44.98876" lon="4.52758">
        <ele>443</ele>
        <time>2015-10-31T07:48:22Z</time>
      </trkpt>
      <trkpt lat="44.98868" lon="4.52765">
        <ele>443</ele>
        <time>2015-10-31T07:48:26Z</time>
      </trkpt>
      <trkpt lat="44.98861" lon="4.52772">
        <ele>443</ele>
        <time>2015-10-31T07:48:30Z</time>
      </trkpt>
      <trkpt lat="44.98852" lon="4.52778">
        <ele>444</ele>
        <time>2015-10-31T07:48:34Z</time>
      </trkpt>
      <trkpt lat="44.98839" lon="4.5279">
        <ele>444</ele>
        <time>2015-10-31T07:48:39Z</time>
      </trkpt>
      <trkpt lat="44.9883" lon="4.52802">
        <ele>443</ele>
        <time>2015-10-31T07:48:44Z</time>
      </trkpt>
      <trkpt lat="44.98825" lon="4.52807">
        <ele>442</ele>
        <time>2015-10-31T07:48:47Z</time>
      </trkpt>
      <trkpt lat="44.98819" lon="4.52813">
        <ele>441</ele>
        <time>2015-10-31T07:48:51Z</time>
      </trkpt>
      <trkpt lat="44.98813" lon="4.52816">
        <ele>441</ele>
        <time>2015-10-31T07:48:54Z</time>
      </trkpt>
      <trkpt lat="44.98805" lon="4.52823">
        <ele>440</ele>
        <time>2015-10-31T07:48:58Z</time>
      </trkpt>
      <trkpt lat="44.98797" lon="4.52833">
        <ele>439</ele>
        <time>2015-10-31T07:49:02Z</time>
      </trkpt>
      <trkpt lat="44.9879" lon="4.52841">
        <ele>439</ele>
        <time>2015-10-31T07:49:06Z</time>
      </trkpt>
      <trkpt lat="44.98784" lon="4.52855">
        <ele>438</ele>
        <time>2015-10-31T07:49:10Z</time>
      </trkpt>
      <trkpt lat="44.98775" lon="4.52857">
        <ele>438</ele>
        <time>2015-10-31T07:49:14Z</time>
      </trkpt>
      <trkpt lat="44.98768" lon="4.5286">
        <ele>437</ele>
        <time>2015-10-31T07:49:18Z</time>
      </trkpt>
      <trkpt lat="44.9876" lon="4.52864">
        <ele>438</ele>
        <time>2015-10-31T07:49:23Z</time>
      </trkpt>
      <trkpt lat="44.98753" lon="4.52866">
        <ele>438</ele>
        <time>2015-10-31T07:49:27Z</time>
      </trkpt>
      <trkpt lat="44.98748" lon="4.52869">
        <ele>438</ele>
        <time>2015-10-31T07:49:30Z</time>
      </trkpt>
      <trkpt lat="44.9874" lon="4.52874">
        <ele>438</ele>
        <time>2015-10-31T07:49:35Z</time>
      </trkpt>
      <trkpt lat="44.98731" lon="4.52876">
        <ele>438</ele>
        <time>2015-10-31T07:49:40Z</time>
      </trkpt>
      <trkpt lat="44.98726" lon="4.52878">
        <ele>437</ele>
        <time>2015-10-31T07:49:43Z</time>
      </trkpt>
      <trkpt lat="44.98717" lon="4.52882">
        <ele>437</ele>
        <time>2015-10-31T07:49:48Z</time>
      </trkpt>
      <trkpt lat="44.98713" lon="4.52888">
        <ele>438</ele>
        <time>2015-10-31T07:49:52Z</time>
      </trkpt>
      <trkpt lat="44.98706" lon="4.52895">
        <ele>439</ele>
        <time>2015-10-31T07:49:56Z</time>
      </trkpt>
      <trkpt lat="44.98695" lon="4.52898">
        <ele>439</ele>
        <time>2015-10-31T07:50:00Z</time>
      </trkpt>
      <trkpt lat="44.98689" lon="4.52899">
        <ele>438</ele>
        <time>2015-10-31T07:50:03Z</time>
      </trkpt>
      <trkpt lat="44.98681" lon="4.52899">
        <ele>438</ele>
        <time>2015-10-31T07:50:07Z</time>
      </trkpt>
      <trkpt lat="44.98673" lon="4.52901">
        <ele>437</ele>
        <time>2015-10-31T07:50:11Z</time>
      </trkpt>
      <trkpt lat="44.98665" lon="4.52901">
        <ele>437</ele>
        <time>2015-10-31T07:50:14Z</time>
      </trkpt>
      <trkpt lat="44.98658" lon="4.52906">
        <ele>436</ele>
        <time>2015-10-31T07:50:18Z</time>
      </trkpt>
      <trkpt lat="44.98648" lon="4.52908">
        <ele>437</ele>
        <time>2015-10-31T07:50:23Z</time>
      </trkpt>
      <trkpt lat="44.98642" lon="4.52905">
        <ele>438</ele>
        <time>2015-10-31T07:50:27Z</time>
      </trkpt>
      <trkpt lat="44.98635" lon="4.52901">
        <ele>438</ele>
        <time>2015-10-31T07:50:31Z</time>
      </trkpt>
      <trkpt lat="44.98628" lon="4.52897">
        <ele>439</ele>
        <time>2015-10-31T07:50:35Z</time>
      </trkpt>
      <trkpt lat="44.9862" lon="4.52889">
        <ele>439</ele>
        <time>2015-10-31T07:50:40Z</time>
      </trkpt>
      <trkpt lat="44.98611" lon="4.52882">
        <ele>440</ele>
        <time>2015-10-31T07:50:45Z</time>
      </trkpt>
      <trkpt lat="44.98604" lon="4.52877">
        <ele>440</ele>
        <time>2015-10-31T07:50:49Z</time>
      </trkpt>
      <trkpt lat="44.98596" lon="4.52875">
        <ele>441</ele>
        <time>2015-10-31T07:50:53Z</time>
      </trkpt>
      <trkpt lat="44.98589" lon="4.52872">
        <ele>441</ele>
        <time>2015-10-31T07:50:57Z</time>
      </trkpt>
      <trkpt lat="44.98579" lon="4.5286">
        <ele>442</ele>
        <time>2015-10-31T07:51:02Z</time>
      </trkpt>
      <trkpt lat="44.98574" lon="4.52854">
        <ele>443</ele>
        <time>2015-10-31T07:51:06Z</time>
      </trkpt>
      <trkpt lat="44.98565" lon="4.52841">
        <ele>443</ele>
        <time>2015-10-31T07:51:11Z</time>
      </trkpt>
      <trkpt lat="44.98558" lon="4.52835">
        <ele>444</ele>
        <time>2015-10-31T07:51:17Z</time>
      </trkpt>
      <trkpt lat="44.98551" lon="4.52827">
        <ele>447</ele>
        <time>2015-10-31T07:51:23Z</time>
      </trkpt>
      <trkpt lat="44.98545" lon="4.52824">
        <ele>449</ele>
        <time>2015-10-31T07:51:27Z</time>
      </trkpt>
      <trkpt lat="44.98529" lon="4.52818">
        <ele>452</ele>
        <time>2015-10-31T07:51:32Z</time>
      </trkpt>
      <trkpt lat="44.98525" lon="4.52824">
        <ele>454</ele>
        <time>2015-10-31T07:51:35Z</time>
      </trkpt>
      <trkpt lat="44.98515" lon="4.52829">
        <ele>458</ele>
        <time>2015-10-31T07:51:40Z</time>
      </trkpt>
      <trkpt lat="44.9851" lon="4.52825">
        <ele>460</ele>
        <time>2015-10-31T07:51:43Z</time>
      </trkpt>
      <trkpt lat="44.98503" lon="4.52821">
        <ele>463</ele>
        <time>2015-10-31T07:51:48Z</time>
      </trkpt>
      <trkpt lat="44.98492" lon="4.52818">
        <ele>466</ele>
        <time>2015-10-31T07:51:52Z</time>
      </trkpt>
      <trkpt lat="44.98485" lon="4.52819">
        <ele>468</ele>
        <time>2015-10-31T07:51:56Z</time>
      </trkpt>
      <trkpt lat="44.98477" lon="4.52823">
        <ele>469</ele>
        <time>2015-10-31T07:52:04Z</time>
      </trkpt>
      <trkpt lat="44.9847" lon="4.52825">
        <ele>469</ele>
        <time>2015-10-31T07:52:08Z</time>
      </trkpt>
      <trkpt lat="44.98461" lon="4.52827">
        <ele>470</ele>
        <time>2015-10-31T07:52:12Z</time>
      </trkpt>
      <trkpt lat="44.9845" lon="4.52829">
        <ele>472</ele>
        <time>2015-10-31T07:52:17Z</time>
      </trkpt>
      <trkpt lat="44.98442" lon="4.52831">
        <ele>472</ele>
        <time>2015-10-31T07:52:20Z</time>
      </trkpt>
      <trkpt lat="44.98434" lon="4.52832">
        <ele>473</ele>
        <time>2015-10-31T07:52:24Z</time>
      </trkpt>
      <trkpt lat="44.98428" lon="4.52838">
        <ele>474</ele>
        <time>2015-10-31T07:52:28Z</time>
      </trkpt>
      <trkpt lat="44.98427" lon="4.52841">
        <ele>474</ele>
        <time>2015-10-31T07:52:30Z</time>
      </trkpt>
      <trkpt lat="44.9842" lon="4.52847">
        <ele>475</ele>
        <time>2015-10-31T07:52:38Z</time>
      </trkpt>
      <trkpt lat="44.98409" lon="4.52839">
        <ele>472</ele>
        <time>2015-10-31T07:52:43Z</time>
      </trkpt>
      <trkpt lat="44.984" lon="4.52846">
        <ele>468</ele>
        <time>2015-10-31T07:52:48Z</time>
      </trkpt>
      <trkpt lat="44.98392" lon="4.5285">
        <ele>467</ele>
        <time>2015-10-31T07:52:52Z</time>
      </trkpt>
      <trkpt lat="44.98386" lon="4.52855">
        <ele>466</ele>
        <time>2015-10-31T07:52:56Z</time>
      </trkpt>
      <trkpt lat="44.9838" lon="4.52857">
        <ele>461</ele>
        <time>2015-10-31T07:53:00Z</time>
      </trkpt>
      <trkpt lat="44.98373" lon="4.52861">
        <ele>462</ele>
        <time>2015-10-31T07:53:04Z</time>
      </trkpt>
      <trkpt lat="44.98362" lon="4.5286">
        <ele>462</ele>
        <time>2015-10-31T07:53:09Z</time>
      </trkpt>
      <trkpt lat="44.98355" lon="4.52858">
        <ele>462</ele>
        <time>2015-10-31T07:53:14Z</time>
      </trkpt>
      <trkpt lat="44.98352" lon="4.52857">
        <ele>462</ele>
        <time>2015-10-31T07:53:16Z</time>
      </trkpt>
      <trkpt lat="44.98342" lon="4.52855">
        <ele>461</ele>
        <time>2015-10-31T07:53:21Z</time>
      </trkpt>
      <trkpt lat="44.98338" lon="4.52853">
        <ele>461</ele>
        <time>2015-10-31T07:53:23Z</time>
      </trkpt>
      <trkpt lat="44.98328" lon="4.52849">
        <ele>462</ele>
        <time>2015-10-31T07:53:30Z</time>
      </trkpt>
      <trkpt lat="44.9833" lon="4.52837">
        <ele>461</ele>
        <time>2015-10-31T07:53:42Z</time>
      </trkpt>
      <trkpt lat="44.98336" lon="4.52831">
        <ele>461</ele>
        <time>2015-10-31T07:53:48Z</time>
      </trkpt>
      <trkpt lat="44.98339" lon="4.52822">
        <ele>461</ele>
        <time>2015-10-31T07:53:52Z</time>
      </trkpt>
      <trkpt lat="44.98341" lon="4.52813">
        <ele>462</ele>
        <time>2015-10-31T07:53:57Z</time>
      </trkpt>
      <trkpt lat="44.98353" lon="4.52803">
        <ele>463</ele>
        <time>2015-10-31T07:54:02Z</time>
      </trkpt>
      <trkpt lat="44.9836" lon="4.52787">
        <ele>463</ele>
        <time>2015-10-31T07:54:07Z</time>
      </trkpt>
      <trkpt lat="44.98365" lon="4.52774">
        <ele>463</ele>
        <time>2015-10-31T07:54:11Z</time>
      </trkpt>
      <trkpt lat="44.98371" lon="4.52765">
        <ele>463</ele>
        <time>2015-10-31T07:54:18Z</time>
      </trkpt>
      <trkpt lat="44.98375" lon="4.52759">
        <ele>463</ele>
        <time>2015-10-31T07:54:22Z</time>
      </trkpt>
      <trkpt lat="44.98383" lon="4.52746">
        <ele>464</ele>
        <time>2015-10-31T07:54:27Z</time>
      </trkpt>
      <trkpt lat="44.98385" lon="4.52734">
        <ele>464</ele>
        <time>2015-10-31T07:54:34Z</time>
      </trkpt>
      <trkpt lat="44.98389" lon="4.52726">
        <ele>464</ele>
        <time>2015-10-31T07:54:44Z</time>
      </trkpt>
      <trkpt lat="44.98394" lon="4.52719">
        <ele>464</ele>
        <time>2015-10-31T07:54:49Z</time>
      </trkpt>
      <trkpt lat="44.98396" lon="4.52708">
        <ele>464</ele>
        <time>2015-10-31T07:54:58Z</time>
      </trkpt>
      <trkpt lat="44.98397" lon="4.52699">
        <ele>464</ele>
        <time>2015-10-31T07:55:02Z</time>
      </trkpt>
      <trkpt lat="44.98402" lon="4.52686">
        <ele>465</ele>
        <time>2015-10-31T07:55:07Z</time>
      </trkpt>
      <trkpt lat="44.98415" lon="4.52672">
        <ele>466</ele>
        <time>2015-10-31T07:55:11Z</time>
      </trkpt>
      <trkpt lat="44.98417" lon="4.52661">
        <ele>466</ele>
        <time>2015-10-31T07:55:16Z</time>
      </trkpt>
      <trkpt lat="44.98423" lon="4.52652">
        <ele>467</ele>
        <time>2015-10-31T07:55:28Z</time>
      </trkpt>
      <trkpt lat="44.98433" lon="4.52654">
        <ele>467</ele>
        <time>2015-10-31T07:55:33Z</time>
      </trkpt>
      <trkpt lat="44.98442" lon="4.52655">
        <ele>466</ele>
        <time>2015-10-31T07:55:39Z</time>
      </trkpt>
      <trkpt lat="44.98449" lon="4.5266">
        <ele>467</ele>
        <time>2015-10-31T07:55:44Z</time>
      </trkpt>
      <trkpt lat="44.98456" lon="4.52658">
        <ele>467</ele>
        <time>2015-10-31T07:55:49Z</time>
      </trkpt>
      <trkpt lat="44.98465" lon="4.52657">
        <ele>468</ele>
        <time>2015-10-31T07:55:54Z</time>
      </trkpt>
      <trkpt lat="44.98473" lon="4.5266">
        <ele>467</ele>
        <time>2015-10-31T07:55:58Z</time>
      </trkpt>
      <trkpt lat="44.9848" lon="4.52667">
        <ele>467</ele>
        <time>2015-10-31T07:56:02Z</time>
      </trkpt>
      <trkpt lat="44.98489" lon="4.52676">
        <ele>467</ele>
        <time>2015-10-31T07:56:06Z</time>
      </trkpt>
      <trkpt lat="44.98496" lon="4.52683">
        <ele>467</ele>
        <time>2015-10-31T07:56:10Z</time>
      </trkpt>
      <trkpt lat="44.98502" lon="4.52689">
        <ele>468</ele>
        <time>2015-10-31T07:56:15Z</time>
      </trkpt>
      <trkpt lat="44.98509" lon="4.52692">
        <ele>469</ele>
        <time>2015-10-31T07:56:18Z</time>
      </trkpt>
      <trkpt lat="44.98516" lon="4.52697">
        <ele>469</ele>
        <time>2015-10-31T07:56:24Z</time>
      </trkpt>
      <trkpt lat="44.98522" lon="4.52698">
        <ele>470</ele>
        <time>2015-10-31T07:56:30Z</time>
      </trkpt>
      <trkpt lat="44.98531" lon="4.52693">
        <ele>473</ele>
        <time>2015-10-31T07:56:35Z</time>
      </trkpt>
      <trkpt lat="44.98539" lon="4.52689">
        <ele>474</ele>
        <time>2015-10-31T07:56:42Z</time>
      </trkpt>
      <trkpt lat="44.98548" lon="4.52688">
        <ele>477</ele>
        <time>2015-10-31T07:56:52Z</time>
      </trkpt>
      <trkpt lat="44.98555" lon="4.52683">
        <ele>478</ele>
        <time>2015-10-31T07:56:57Z</time>
      </trkpt>
      <trkpt lat="44.98561" lon="4.52683">
        <ele>479</ele>
        <time>2015-10-31T07:57:04Z</time>
      </trkpt>
      <trkpt lat="44.98569" lon="4.52683">
        <ele>479</ele>
        <time>2015-10-31T07:57:08Z</time>
      </trkpt>
      <trkpt lat="44.98575" lon="4.52681">
        <ele>480</ele>
        <time>2015-10-31T07:57:12Z</time>
      </trkpt>
      <trkpt lat="44.98581" lon="4.52678">
        <ele>481</ele>
        <time>2015-10-31T07:57:16Z</time>
      </trkpt>
      <trkpt lat="44.98587" lon="4.5268">
        <ele>482</ele>
        <time>2015-10-31T07:57:50Z</time>
      </trkpt>
      <trkpt lat="44.98596" lon="4.52682">
        <ele>479</ele>
        <time>2015-10-31T07:57:54Z</time>
      </trkpt>
      <trkpt lat="44.98603" lon="4.52688">
        <ele>479</ele>
        <time>2015-10-31T07:58:00Z</time>
      </trkpt>
      <trkpt lat="44.98611" lon="4.52688">
        <ele>480</ele>
        <time>2015-10-31T07:58:08Z</time>
      </trkpt>
      <trkpt lat="44.98619" lon="4.52686">
        <ele>483</ele>
        <time>2015-10-31T07:58:16Z</time>
      </trkpt>
      <trkpt lat="44.98624" lon="4.52686">
        <ele>484</ele>
        <time>2015-10-31T07:58:46Z</time>
      </trkpt>
      <trkpt lat="44.98633" lon="4.52689">
        <ele>483</ele>
        <time>2015-10-31T07:58:50Z</time>
      </trkpt>
      <trkpt lat="44.98638" lon="4.5268">
        <ele>482</ele>
        <time>2015-10-31T07:59:06Z</time>
      </trkpt>
      <trkpt lat="44.98646" lon="4.52674">
        <ele>483</ele>
        <time>2015-10-31T07:59:10Z</time>
      </trkpt>
      <trkpt lat="44.98652" lon="4.52667">
        <ele>484</ele>
        <time>2015-10-31T07:59:15Z</time>
      </trkpt>
      <trkpt lat="44.98661" lon="4.52661">
        <ele>486</ele>
        <time>2015-10-31T07:59:20Z</time>
      </trkpt>
      <trkpt lat="44.98668" lon="4.52653">
        <ele>486</ele>
        <time>2015-10-31T07:59:24Z</time>
      </trkpt>
      <trkpt lat="44.98674" lon="4.52645">
        <ele>486</ele>
        <time>2015-10-31T07:59:30Z</time>
      </trkpt>
      <trkpt lat="44.98681" lon="4.52642">
        <ele>486</ele>
        <time>2015-10-31T07:59:37Z</time>
      </trkpt>
      <trkpt lat="44.98686" lon="4.52633">
        <ele>486</ele>
        <time>2015-10-31T07:59:45Z</time>
      </trkpt>
      <trkpt lat="44.98688" lon="4.52622">
        <ele>488</ele>
        <time>2015-10-31T07:59:54Z</time>
      </trkpt>
      <trkpt lat="44.98693" lon="4.52615">
        <ele>489</ele>
        <time>2015-10-31T08:00:00Z</time>
      </trkpt>
      <trkpt lat="44.987" lon="4.52611">
        <ele>489</ele>
        <time>2015-10-31T08:00:05Z</time>
      </trkpt>
      <trkpt lat="44.98704" lon="4.52608">
        <ele>488</ele>
        <time>2015-10-31T08:00:09Z</time>
      </trkpt>
      <trkpt lat="44.98709" lon="4.52603">
        <ele>488</ele>
        <time>2015-10-31T08:00:12Z</time>
      </trkpt>
      <trkpt lat="44.98722" lon="4.52599">
        <ele>488</ele>
        <time>2015-10-31T08:00:16Z</time>
      </trkpt>
      <trkpt lat="44.98726" lon="4.52591">
        <ele>487</ele>
        <time>2015-10-31T08:00:20Z</time>
      </trkpt>
      <trkpt lat="44.98729" lon="4.52579">
        <ele>486</ele>
        <time>2015-10-31T08:00:26Z</time>
      </trkpt>
      <trkpt lat="44.98727" lon="4.52568">
        <ele>485</ele>
        <time>2015-10-31T08:00:30Z</time>
      </trkpt>
      <trkpt lat="44.98734" lon="4.52561">
        <ele>483</ele>
        <time>2015-10-31T08:00:40Z</time>
      </trkpt>
      <trkpt lat="44.98739" lon="4.52561">
        <ele>481</ele>
        <time>2015-10-31T08:00:46Z</time>
      </trkpt>
      <trkpt lat="44.98745" lon="4.52556">
        <ele>482</ele>
        <time>2015-10-31T08:01:10Z</time>
      </trkpt>
      <trkpt lat="44.98735" lon="4.52542">
        <ele>484</ele>
        <time>2015-10-31T08:01:13Z</time>
      </trkpt>
      <trkpt lat="44.98728" lon="4.52537">
        <ele>486</ele>
        <time>2015-10-31T08:02:34Z</time>
      </trkpt>
      <trkpt lat="44.98724" lon="4.52526">
        <ele>485</ele>
        <time>2015-10-31T08:02:48Z</time>
      </trkpt>
      <trkpt lat="44.98719" lon="4.52518">
        <ele>485</ele>
        <time>2015-10-31T08:02:52Z</time>
      </trkpt>
      <trkpt lat="44.98714" lon="4.52511">
        <ele>484</ele>
        <time>2015-10-31T08:02:56Z</time>
      </trkpt>
      <trkpt lat="44.98707" lon="4.52504">
        <ele>484</ele>
        <time>2015-10-31T08:03:00Z</time>
      </trkpt>
      <trkpt lat="44.98701" lon="4.52495">
        <ele>483</ele>
        <time>2015-10-31T08:03:04Z</time>
      </trkpt>
      <trkpt lat="44.98697" lon="4.52488">
        <ele>483</ele>
        <time>2015-10-31T08:03:08Z</time>
      </trkpt>
      <trkpt lat="44.98692" lon="4.52481">
        <ele>483</ele>
        <time>2015-10-31T08:03:12Z</time>
      </trkpt>
      <trkpt lat="44.98687" lon="4.52473">
        <ele>483</ele>
        <time>2015-10-31T08:03:16Z</time>
      </trkpt>
      <trkpt lat="44.98677" lon="4.52464">
        <ele>482</ele>
        <time>2015-10-31T08:03:21Z</time>
      </trkpt>
      <trkpt lat="44.98672" lon="4.52461">
        <ele>482</ele>
        <time>2015-10-31T08:03:24Z</time>
      </trkpt>
      <trkpt lat="44.98663" lon="4.52453">
        <ele>482</ele>
        <time>2015-10-31T08:03:28Z</time>
      </trkpt>
      <trkpt lat="44.98663" lon="4.52443">
        <ele>483</ele>
        <time>2015-10-31T08:03:53Z</time>
      </trkpt>
      <trkpt lat="44.98659" lon="4.52406">
        <ele>483</ele>
        <time>2015-10-31T08:03:57Z</time>
      </trkpt>
      <trkpt lat="44.98659" lon="4.52391">
        <ele>484</ele>
        <time>2015-10-31T08:04:02Z</time>
      </trkpt>
      <trkpt lat="44.98659" lon="4.52381">
        <ele>484</ele>
        <time>2015-10-31T08:04:08Z</time>
      </trkpt>
      <trkpt lat="44.98664" lon="4.52374">
        <ele>485</ele>
        <time>2015-10-31T08:04:12Z</time>
      </trkpt>
      <trkpt lat="44.98669" lon="4.52363">
        <ele>487</ele>
        <time>2015-10-31T08:04:19Z</time>
      </trkpt>
      <trkpt lat="44.98669" lon="4.52356">
        <ele>487</ele>
        <time>2015-10-31T08:04:22Z</time>
      </trkpt>
      <trkpt lat="44.98668" lon="4.52344">
        <ele>488</ele>
        <time>2015-10-31T08:04:29Z</time>
      </trkpt>
      <trkpt lat="44.98663" lon="4.52334">
        <ele>489</ele>
        <time>2015-10-31T08:04:32Z</time>
      </trkpt>
      <trkpt lat="44.98654" lon="4.52318">
        <ele>490</ele>
        <time>2015-10-31T08:04:36Z</time>
      </trkpt>
      <trkpt lat="44.98648" lon="4.52308">
        <ele>491</ele>
        <time>2015-10-31T08:04:40Z</time>
      </trkpt>
      <trkpt lat="44.98644" lon="4.52301">
        <ele>491</ele>
        <time>2015-10-31T08:04:44Z</time>
      </trkpt>
      <trkpt lat="44.98639" lon="4.52292">
        <ele>491</ele>
        <time>2015-10-31T08:04:48Z</time>
      </trkpt>
      <trkpt lat="44.98632" lon="4.52289">
        <ele>490</ele>
        <time>2015-10-31T08:04:54Z</time>
      </trkpt>
      <trkpt lat="44.98627" lon="4.5228">
        <ele>490</ele>
        <time>2015-10-31T08:04:58Z</time>
      </trkpt>
      <trkpt lat="44.9862" lon="4.52273">
        <ele>490</ele>
        <time>2015-10-31T08:05:02Z</time>
      </trkpt>
      <trkpt lat="44.98613" lon="4.5227">
        <ele>489</ele>
        <time>2015-10-31T08:05:07Z</time>
      </trkpt>
      <trkpt lat="44.98608" lon="4.52267">
        <ele>488</ele>
        <time>2015-10-31T08:05:12Z</time>
      </trkpt>
      <trkpt lat="44.986" lon="4.5226">
        <ele>487</ele>
        <time>2015-10-31T08:05:16Z</time>
      </trkpt>
      <trkpt lat="44.98593" lon="4.52259">
        <ele>487</ele>
        <time>2015-10-31T08:05:21Z</time>
      </trkpt>
      <trkpt lat="44.98584" lon="4.52261">
        <ele>487</ele>
        <time>2015-10-31T08:05:27Z</time>
      </trkpt>
      <trkpt lat="44.98578" lon="4.52263">
        <ele>489</ele>
        <time>2015-10-31T08:05:30Z</time>
      </trkpt>
      <trkpt lat="44.98569" lon="4.52266">
        <ele>490</ele>
        <time>2015-10-31T08:05:37Z</time>
      </trkpt>
      <trkpt lat="44.98561" lon="4.52267">
        <ele>491</ele>
        <time>2015-10-31T08:05:44Z</time>
      </trkpt>
      <trkpt lat="44.98554" lon="4.52271">
        <ele>491</ele>
        <time>2015-10-31T08:05:49Z</time>
      </trkpt>
      <trkpt lat="44.98548" lon="4.52276">
        <ele>491</ele>
        <time>2015-10-31T08:05:56Z</time>
      </trkpt>
      <trkpt lat="44.98544" lon="4.52284">
        <ele>491</ele>
        <time>2015-10-31T08:06:02Z</time>
      </trkpt>
      <trkpt lat="44.98537" lon="4.52289">
        <ele>493</ele>
        <time>2015-10-31T08:06:06Z</time>
      </trkpt>
      <trkpt lat="44.98531" lon="4.52296">
        <ele>493</ele>
        <time>2015-10-31T08:06:12Z</time>
      </trkpt>
      <trkpt lat="44.98523" lon="4.52302">
        <ele>493</ele>
        <time>2015-10-31T08:06:20Z</time>
      </trkpt>
      <trkpt lat="44.98512" lon="4.52307">
        <ele>494</ele>
        <time>2015-10-31T08:06:25Z</time>
      </trkpt>
      <trkpt lat="44.98505" lon="4.52314">
        <ele>499</ele>
        <time>2015-10-31T08:06:29Z</time>
      </trkpt>
      <trkpt lat="44.98499" lon="4.52319">
        <ele>504</ele>
        <time>2015-10-31T08:06:37Z</time>
      </trkpt>
      <trkpt lat="44.98491" lon="4.5232">
        <ele>508</ele>
        <time>2015-10-31T08:06:44Z</time>
      </trkpt>
      <trkpt lat="44.98483" lon="4.52315">
        <ele>510</ele>
        <time>2015-10-31T08:06:49Z</time>
      </trkpt>
      <trkpt lat="44.98476" lon="4.52308">
        <ele>512</ele>
        <time>2015-10-31T08:06:56Z</time>
      </trkpt>
      <trkpt lat="44.9847" lon="4.523">
        <ele>514</ele>
        <time>2015-10-31T08:07:03Z</time>
      </trkpt>
      <trkpt lat="44.98465" lon="4.52292">
        <ele>515</ele>
        <time>2015-10-31T08:07:08Z</time>
      </trkpt>
      <trkpt lat="44.98462" lon="4.52287">
        <ele>517</ele>
        <time>2015-10-31T08:07:12Z</time>
      </trkpt>
      <trkpt lat="44.98458" lon="4.52274">
        <ele>520</ele>
        <time>2015-10-31T08:07:22Z</time>
      </trkpt>
      <trkpt lat="44.98453" lon="4.52268">
        <ele>522</ele>
        <time>2015-10-31T08:07:28Z</time>
      </trkpt>
      <trkpt lat="44.9845" lon="4.52265">
        <ele>523</ele>
        <time>2015-10-31T08:07:38Z</time>
      </trkpt>
      <trkpt lat="44.98444" lon="4.52255">
        <ele>524</ele>
        <time>2015-10-31T08:07:42Z</time>
      </trkpt>
      <trkpt lat="44.98441" lon="4.52247">
        <ele>524</ele>
        <time>2015-10-31T08:07:48Z</time>
      </trkpt>
      <trkpt lat="44.98438" lon="4.52238">
        <ele>525</ele>
        <time>2015-10-31T08:07:53Z</time>
      </trkpt>
      <trkpt lat="44.98437" lon="4.52226">
        <ele>526</ele>
        <time>2015-10-31T08:08:00Z</time>
      </trkpt>
      <trkpt lat="44.98437" lon="4.52213">
        <ele>526</ele>
        <time>2015-10-31T08:08:05Z</time>
      </trkpt>
      <trkpt lat="44.98437" lon="4.52205">
        <ele>527</ele>
        <time>2015-10-31T08:08:12Z</time>
      </trkpt>
      <trkpt lat="44.98434" lon="4.52193">
        <ele>527</ele>
        <time>2015-10-31T08:08:16Z</time>
      </trkpt>
      <trkpt lat="44.98429" lon="4.52183">
        <ele>527</ele>
        <time>2015-10-31T08:08:20Z</time>
      </trkpt>
      <trkpt lat="44.98424" lon="4.52174">
        <ele>527</ele>
        <time>2015-10-31T08:08:24Z</time>
      </trkpt>
      <trkpt lat="44.9842" lon="4.52164">
        <ele>528</ele>
        <time>2015-10-31T08:08:28Z</time>
      </trkpt>
      <trkpt lat="44.98415" lon="4.52157">
        <ele>528</ele>
        <time>2015-10-31T08:08:33Z</time>
      </trkpt>
      <trkpt lat="44.98408" lon="4.52149">
        <ele>528</ele>
        <time>2015-10-31T08:08:40Z</time>
      </trkpt>
      <trkpt lat="44.98401" lon="4.52143">
        <ele>528</ele>
        <time>2015-10-31T08:09:11Z</time>
      </trkpt>
      <trkpt lat="44.98394" lon="4.52128">
        <ele>527</ele>
        <time>2015-10-31T08:09:16Z</time>
      </trkpt>
      <trkpt lat="44.98393" lon="4.52118">
        <ele>527</ele>
        <time>2015-10-31T08:09:20Z</time>
      </trkpt>
      <trkpt lat="44.98393" lon="4.52105">
        <ele>527</ele>
        <time>2015-10-31T08:09:25Z</time>
      </trkpt>
      <trkpt lat="44.98393" lon="4.52092">
        <ele>526</ele>
        <time>2015-10-31T08:09:32Z</time>
      </trkpt>
      <trkpt lat="44.98394" lon="4.52082">
        <ele>526</ele>
        <time>2015-10-31T08:09:40Z</time>
      </trkpt>
      <trkpt lat="44.98396" lon="4.52072">
        <ele>525</ele>
        <time>2015-10-31T08:09:46Z</time>
      </trkpt>
      <trkpt lat="44.98399" lon="4.5206">
        <ele>525</ele>
        <time>2015-10-31T08:09:50Z</time>
      </trkpt>
      <trkpt lat="44.98402" lon="4.52049">
        <ele>526</ele>
        <time>2015-10-31T08:09:54Z</time>
      </trkpt>
      <trkpt lat="44.98404" lon="4.52037">
        <ele>527</ele>
        <time>2015-10-31T08:10:02Z</time>
      </trkpt>
      <trkpt lat="44.98408" lon="4.52028">
        <ele>527</ele>
        <time>2015-10-31T08:10:10Z</time>
      </trkpt>
      <trkpt lat="44.9841" lon="4.52016">
        <ele>528</ele>
        <time>2015-10-31T08:10:20Z</time>
      </trkpt>
      <trkpt lat="44.98412" lon="4.52005">
        <ele>528</ele>
        <time>2015-10-31T08:10:26Z</time>
      </trkpt>
      <trkpt lat="44.98417" lon="4.51987">
        <ele>528</ele>
        <time>2015-10-31T08:10:37Z</time>
      </trkpt>
      <trkpt lat="44.98423" lon="4.51978">
        <ele>527</ele>
        <time>2015-10-31T08:10:44Z</time>
      </trkpt>
      <trkpt lat="44.98424" lon="4.5197">
        <ele>527</ele>
        <time>2015-10-31T08:11:08Z</time>
      </trkpt>
      <trkpt lat="44.9842" lon="4.51983">
        <ele>526</ele>
        <time>2015-10-31T08:11:17Z</time>
      </trkpt>
      <trkpt lat="44.98414" lon="4.51993">
        <ele>527</ele>
        <time>2015-10-31T08:11:31Z</time>
      </trkpt>
      <trkpt lat="44.98414" lon="4.52003">
        <ele>527</ele>
        <time>2015-10-31T08:11:38Z</time>
      </trkpt>
      <trkpt lat="44.98411" lon="4.52017">
        <ele>527</ele>
        <time>2015-10-31T08:11:42Z</time>
      </trkpt>
      <trkpt lat="44.9841" lon="4.52025">
        <ele>527</ele>
        <time>2015-10-31T08:11:45Z</time>
      </trkpt>
      <trkpt lat="44.98408" lon="4.52038">
        <ele>527</ele>
        <time>2015-10-31T08:11:49Z</time>
      </trkpt>
      <trkpt lat="44.98405" lon="4.5205">
        <ele>527</ele>
        <time>2015-10-31T08:11:53Z</time>
      </trkpt>
      <trkpt lat="44.98403" lon="4.52059">
        <ele>527</ele>
        <time>2015-10-31T08:11:56Z</time>
      </trkpt>
      <trkpt lat="44.98399" lon="4.52071">
        <ele>527</ele>
        <time>2015-10-31T08:12:00Z</time>
      </trkpt>
      <trkpt lat="44.98396" lon="4.52086">
        <ele>527</ele>
        <time>2015-10-31T08:12:04Z</time>
      </trkpt>
      <trkpt lat="44.98393" lon="4.52097">
        <ele>527</ele>
        <time>2015-10-31T08:12:07Z</time>
      </trkpt>
      <trkpt lat="44.98394" lon="4.52107">
        <ele>526</ele>
        <time>2015-10-31T08:12:11Z</time>
      </trkpt>
      <trkpt lat="44.98397" lon="4.52122">
        <ele>524</ele>
        <time>2015-10-31T08:12:15Z</time>
      </trkpt>
      <trkpt lat="44.984" lon="4.52132">
        <ele>524</ele>
        <time>2015-10-31T08:12:18Z</time>
      </trkpt>
      <trkpt lat="44.98403" lon="4.52143">
        <ele>523</ele>
        <time>2015-10-31T08:12:23Z</time>
      </trkpt>
      <trkpt lat="44.98406" lon="4.52148">
        <ele>523</ele>
        <time>2015-10-31T08:12:37Z</time>
      </trkpt>
      <trkpt lat="44.98415" lon="4.52162">
        <ele>522</ele>
        <time>2015-10-31T08:12:38Z</time>
      </trkpt>
      <trkpt lat="44.98423" lon="4.52171">
        <ele>521</ele>
        <time>2015-10-31T08:12:44Z</time>
      </trkpt>
      <trkpt lat="44.9843" lon="4.52185">
        <ele>522</ele>
        <time>2015-10-31T08:12:49Z</time>
      </trkpt>
      <trkpt lat="44.98434" lon="4.52196">
        <ele>522</ele>
        <time>2015-10-31T08:12:54Z</time>
      </trkpt>
      <trkpt lat="44.98435" lon="4.52205">
        <ele>526</ele>
        <time>2015-10-31T08:13:16Z</time>
      </trkpt>
      <trkpt lat="44.98435" lon="4.52217">
        <ele>525</ele>
        <time>2015-10-31T08:13:23Z</time>
      </trkpt>
      <trkpt lat="44.98435" lon="4.52228">
        <ele>526</ele>
        <time>2015-10-31T08:13:32Z</time>
      </trkpt>
      <trkpt lat="44.98436" lon="4.52238">
        <ele>526</ele>
        <time>2015-10-31T08:13:58Z</time>
      </trkpt>
      <trkpt lat="44.9844" lon="4.52247">
        <ele>527</ele>
        <time>2015-10-31T08:14:19Z</time>
      </trkpt>
      <trkpt lat="44.98445" lon="4.52256">
        <ele>526</ele>
        <time>2015-10-31T08:15:00Z</time>
      </trkpt>
      <trkpt lat="44.98451" lon="4.52265">
        <ele>526</ele>
        <time>2015-10-31T08:15:09Z</time>
      </trkpt>
      <trkpt lat="44.98459" lon="4.52275">
        <ele>526</ele>
        <time>2015-10-31T08:15:14Z</time>
      </trkpt>
      <trkpt lat="44.98467" lon="4.52288">
        <ele>525</ele>
        <time>2015-10-31T08:15:18Z</time>
      </trkpt>
      <trkpt lat="44.98471" lon="4.52293">
        <ele>524</ele>
        <time>2015-10-31T08:15:20Z</time>
      </trkpt>
      <trkpt lat="44.98482" lon="4.52308">
        <ele>523</ele>
        <time>2015-10-31T08:15:26Z</time>
      </trkpt>
      <trkpt lat="44.98491" lon="4.52315">
        <ele>522</ele>
        <time>2015-10-31T08:15:30Z</time>
      </trkpt>
      <trkpt lat="44.98503" lon="4.52315">
        <ele>521</ele>
        <time>2015-10-31T08:15:34Z</time>
      </trkpt>
      <trkpt lat="44.98513" lon="4.52314">
        <ele>522</ele>
        <time>2015-10-31T08:15:38Z</time>
      </trkpt>
      <trkpt lat="44.98519" lon="4.52309">
        <ele>523</ele>
        <time>2015-10-31T08:15:42Z</time>
      </trkpt>
      <trkpt lat="44.98527" lon="4.52303">
        <ele>523</ele>
        <time>2015-10-31T08:15:52Z</time>
      </trkpt>
      <trkpt lat="44.98534" lon="4.52297">
        <ele>523</ele>
        <time>2015-10-31T08:16:01Z</time>
      </trkpt>
      <trkpt lat="44.98541" lon="4.5229">
        <ele>523</ele>
        <time>2015-10-31T08:16:08Z</time>
      </trkpt>
      <trkpt lat="44.98533" lon="4.52296">
        <ele>523</ele>
        <time>2015-10-31T08:16:21Z</time>
      </trkpt>
      <trkpt lat="44.98527" lon="4.52288">
        <ele>522</ele>
        <time>2015-10-31T08:16:37Z</time>
      </trkpt>
      <trkpt lat="44.98522" lon="4.52275">
        <ele>521</ele>
        <time>2015-10-31T08:16:58Z</time>
      </trkpt>
      <trkpt lat="44.98513" lon="4.52257">
        <ele>521</ele>
        <time>2015-10-31T08:17:02Z</time>
      </trkpt>
      <trkpt lat="44.98508" lon="4.5225">
        <ele>520</ele>
        <time>2015-10-31T08:17:10Z</time>
      </trkpt>
      <trkpt lat="44.98503" lon="4.5224">
        <ele>520</ele>
        <time>2015-10-31T08:17:18Z</time>
      </trkpt>
      <trkpt lat="44.98501" lon="4.52229">
        <ele>519</ele>
        <time>2015-10-31T08:17:25Z</time>
      </trkpt>
      <trkpt lat="44.98501" lon="4.5222">
        <ele>520</ele>
        <time>2015-10-31T08:17:31Z</time>
      </trkpt>
      <trkpt lat="44.98503" lon="4.52211">
        <ele>519</ele>
        <time>2015-10-31T08:17:37Z</time>
      </trkpt>
      <trkpt lat="44.98511" lon="4.52204">
        <ele>518</ele>
        <time>2015-10-31T08:17:42Z</time>
      </trkpt>
      <trkpt lat="44.9852" lon="4.52203">
        <ele>516</ele>
        <time>2015-10-31T08:17:47Z</time>
      </trkpt>
      <trkpt lat="44.98526" lon="4.522">
        <ele>512</ele>
        <time>2015-10-31T08:17:54Z</time>
      </trkpt>
      <trkpt lat="44.98534" lon="4.52197">
        <ele>511</ele>
        <time>2015-10-31T08:17:59Z</time>
      </trkpt>
      <trkpt lat="44.98543" lon="4.52198">
        <ele>510</ele>
        <time>2015-10-31T08:18:04Z</time>
      </trkpt>
      <trkpt lat="44.98551" lon="4.522">
        <ele>507</ele>
        <time>2015-10-31T08:18:11Z</time>
      </trkpt>
      <trkpt lat="44.98558" lon="4.52199">
        <ele>506</ele>
        <time>2015-10-31T08:18:15Z</time>
      </trkpt>
      <trkpt lat="44.98567" lon="4.52197">
        <ele>505</ele>
        <time>2015-10-31T08:18:20Z</time>
      </trkpt>
      <trkpt lat="44.98572" lon="4.52191">
        <ele>504</ele>
        <time>2015-10-31T08:18:24Z</time>
      </trkpt>
      <trkpt lat="44.9858" lon="4.52187">
        <ele>502</ele>
        <time>2015-10-31T08:18:33Z</time>
      </trkpt>
      <trkpt lat="44.98586" lon="4.52184">
        <ele>502</ele>
        <time>2015-10-31T08:18:38Z</time>
      </trkpt>
      <trkpt lat="44.98595" lon="4.52184">
        <ele>501</ele>
        <time>2015-10-31T08:18:47Z</time>
      </trkpt>
      <trkpt lat="44.98602" lon="4.52185">
        <ele>499</ele>
        <time>2015-10-31T08:18:57Z</time>
      </trkpt>
      <trkpt lat="44.98608" lon="4.52186">
        <ele>498</ele>
        <time>2015-10-31T08:19:01Z</time>
      </trkpt>
      <trkpt lat="44.98617" lon="4.52189">
        <ele>497</ele>
        <time>2015-10-31T08:19:06Z</time>
      </trkpt>
      <trkpt lat="44.98627" lon="4.5219">
        <ele>497</ele>
        <time>2015-10-31T08:19:09Z</time>
      </trkpt>
      <trkpt lat="44.98639" lon="4.52189">
        <ele>496</ele>
        <time>2015-10-31T08:19:14Z</time>
      </trkpt>
      <trkpt lat="44.98646" lon="4.52194">
        <ele>494</ele>
        <time>2015-10-31T08:19:18Z</time>
      </trkpt>
      <trkpt lat="44.98653" lon="4.52198">
        <ele>492</ele>
        <time>2015-10-31T08:19:23Z</time>
      </trkpt>
      <trkpt lat="44.98659" lon="4.52198">
        <ele>490</ele>
        <time>2015-10-31T08:19:27Z</time>
      </trkpt>
      <trkpt lat="44.98667" lon="4.52197">
        <ele>489</ele>
        <time>2015-10-31T08:19:31Z</time>
      </trkpt>
      <trkpt lat="44.98673" lon="4.52194">
        <ele>488</ele>
        <time>2015-10-31T08:19:34Z</time>
      </trkpt>
      <trkpt lat="44.98683" lon="4.52195">
        <ele>486</ele>
        <time>2015-10-31T08:19:38Z</time>
      </trkpt>
      <trkpt lat="44.98697" lon="4.5219">
        <ele>485</ele>
        <time>2015-10-31T08:19:43Z</time>
      </trkpt>
      <trkpt lat="44.98704" lon="4.52188">
        <ele>485</ele>
        <time>2015-10-31T08:19:46Z</time>
      </trkpt>
      <trkpt lat="44.98713" lon="4.52188">
        <ele>484</ele>
        <time>2015-10-31T08:19:50Z</time>
      </trkpt>
      <trkpt lat="44.98723" lon="4.5219">
        <ele>483</ele>
        <time>2015-10-31T08:19:54Z</time>
      </trkpt>
      <trkpt lat="44.98732" lon="4.52193">
        <ele>483</ele>
        <time>2015-10-31T08:19:58Z</time>
      </trkpt>
      <trkpt lat="44.98741" lon="4.52195">
        <ele>482</ele>
        <time>2015-10-31T08:20:02Z</time>
      </trkpt>
      <trkpt lat="44.9875" lon="4.52196">
        <ele>481</ele>
        <time>2015-10-31T08:20:06Z</time>
      </trkpt>
      <trkpt lat="44.98756" lon="4.52196">
        <ele>481</ele>
        <time>2015-10-31T08:20:09Z</time>
      </trkpt>
      <trkpt lat="44.98763" lon="4.52196">
        <ele>481</ele>
        <time>2015-10-31T08:20:12Z</time>
      </trkpt>
      <trkpt lat="44.98774" lon="4.52197">
        <ele>480</ele>
        <time>2015-10-31T08:20:17Z</time>
      </trkpt>
      <trkpt lat="44.9878" lon="4.52198">
        <ele>480</ele>
        <time>2015-10-31T08:20:20Z</time>
      </trkpt>
      <trkpt lat="44.98786" lon="4.522">
        <ele>480</ele>
        <time>2015-10-31T08:20:24Z</time>
      </trkpt>
      <trkpt lat="44.98794" lon="4.52199">
        <ele>478</ele>
        <time>2015-10-31T08:20:28Z</time>
      </trkpt>
      <trkpt lat="44.98799" lon="4.52201">
        <ele>476</ele>
        <time>2015-10-31T08:20:31Z</time>
      </trkpt>
      <trkpt lat="44.98807" lon="4.52206">
        <ele>474</ele>
        <time>2015-10-31T08:20:35Z</time>
      </trkpt>
      <trkpt lat="44.98812" lon="4.52212">
        <ele>472</ele>
        <time>2015-10-31T08:20:39Z</time>
      </trkpt>
      <trkpt lat="44.98815" lon="4.5222">
        <ele>470</ele>
        <time>2015-10-31T08:20:42Z</time>
      </trkpt>
      <trkpt lat="44.98821" lon="4.52221">
        <ele>467</ele>
        <time>2015-10-31T08:20:48Z</time>
      </trkpt>
      <trkpt lat="44.98828" lon="4.52218">
        <ele>465</ele>
        <time>2015-10-31T08:20:52Z</time>
      </trkpt>
      <trkpt lat="44.98837" lon="4.52218">
        <ele>462</ele>
        <time>2015-10-31T08:20:58Z</time>
      </trkpt>
      <trkpt lat="44.98844" lon="4.52217">
        <ele>458</ele>
        <time>2015-10-31T08:21:04Z</time>
      </trkpt>
      <trkpt lat="44.98853" lon="4.52217">
        <ele>457</ele>
        <time>2015-10-31T08:21:14Z</time>
      </trkpt>
      <trkpt lat="44.98859" lon="4.52217">
        <ele>457</ele>
        <time>2015-10-31T08:21:17Z</time>
      </trkpt>
      <trkpt lat="44.98868" lon="4.52215">
        <ele>456</ele>
        <time>2015-10-31T08:21:22Z</time>
      </trkpt>
      <trkpt lat="44.98877" lon="4.5221">
        <ele>454</ele>
        <time>2015-10-31T08:21:26Z</time>
      </trkpt>
      <trkpt lat="44.98884" lon="4.52206">
        <ele>453</ele>
        <time>2015-10-31T08:21:29Z</time>
      </trkpt>
      <trkpt lat="44.98891" lon="4.52202">
        <ele>452</ele>
        <time>2015-10-31T08:21:40Z</time>
      </trkpt>
      <trkpt lat="44.98898" lon="4.52197">
        <ele>452</ele>
        <time>2015-10-31T08:21:47Z</time>
      </trkpt>
      <trkpt lat="44.98906" lon="4.52193">
        <ele>451</ele>
        <time>2015-10-31T08:21:53Z</time>
      </trkpt>
      <trkpt lat="44.98914" lon="4.52188">
        <ele>451</ele>
        <time>2015-10-31T08:21:59Z</time>
      </trkpt>
      <trkpt lat="44.9892" lon="4.52181">
        <ele>450</ele>
        <time>2015-10-31T08:22:06Z</time>
      </trkpt>
      <trkpt lat="44.98927" lon="4.52175">
        <ele>450</ele>
        <time>2015-10-31T08:22:28Z</time>
      </trkpt>
      <trkpt lat="44.98959" lon="4.52147">
        <ele>451</ele>
        <time>2015-10-31T08:22:33Z</time>
      </trkpt>
      <trkpt lat="44.98964" lon="4.52144">
        <ele>452</ele>
        <time>2015-10-31T08:22:36Z</time>
      </trkpt>
      <trkpt lat="44.98972" lon="4.52137">
        <ele>454</ele>
        <time>2015-10-31T08:22:41Z</time>
      </trkpt>
      <trkpt lat="44.98979" lon="4.52131">
        <ele>454</ele>
        <time>2015-10-31T08:22:48Z</time>
      </trkpt>
      <trkpt lat="44.98986" lon="4.52136">
        <ele>452</ele>
        <time>2015-10-31T08:22:57Z</time>
      </trkpt>
      <trkpt lat="44.98993" lon="4.52137">
        <ele>451</ele>
        <time>2015-10-31T08:23:04Z</time>
      </trkpt>
      <trkpt lat="44.99001" lon="4.52132">
        <ele>443</ele>
        <time>2015-10-31T08:23:14Z</time>
      </trkpt>
      <trkpt lat="44.99007" lon="4.52124">
        <ele>440</ele>
        <time>2015-10-31T08:23:20Z</time>
      </trkpt>
      <trkpt lat="44.99012" lon="4.52115">
        <ele>439</ele>
        <time>2015-10-31T08:23:25Z</time>
      </trkpt>
      <trkpt lat="44.99019" lon="4.52107">
        <ele>438</ele>
        <time>2015-10-31T08:23:30Z</time>
      </trkpt>
      <trkpt lat="44.99025" lon="4.52103">
        <ele>436</ele>
        <time>2015-10-31T08:23:34Z</time>
      </trkpt>
      <trkpt lat="44.99032" lon="4.52099">
        <ele>434</ele>
        <time>2015-10-31T08:23:46Z</time>
      </trkpt>
      <trkpt lat="44.99037" lon="4.5209">
        <ele>433</ele>
        <time>2015-10-31T08:23:49Z</time>
      </trkpt>
      <trkpt lat="44.99042" lon="4.52084">
        <ele>433</ele>
        <time>2015-10-31T08:23:52Z</time>
      </trkpt>
      <trkpt lat="44.99049" lon="4.52078">
        <ele>433</ele>
        <time>2015-10-31T08:23:57Z</time>
      </trkpt>
      <trkpt lat="44.99054" lon="4.52073">
        <ele>432</ele>
        <time>2015-10-31T08:24:01Z</time>
      </trkpt>
      <trkpt lat="44.99059" lon="4.52068">
        <ele>431</ele>
        <time>2015-10-31T08:24:04Z</time>
      </trkpt>
      <trkpt lat="44.99066" lon="4.52062">
        <ele>432</ele>
        <time>2015-10-31T08:24:08Z</time>
      </trkpt>
      <trkpt lat="44.99074" lon="4.52057">
        <ele>432</ele>
        <time>2015-10-31T08:24:13Z</time>
      </trkpt>
      <trkpt lat="44.99081" lon="4.5205">
        <ele>435</ele>
        <time>2015-10-31T08:24:18Z</time>
      </trkpt>
      <trkpt lat="44.99088" lon="4.52044">
        <ele>434</ele>
        <time>2015-10-31T08:24:22Z</time>
      </trkpt>
      <trkpt lat="44.99092" lon="4.52037">
        <ele>435</ele>
        <time>2015-10-31T08:24:26Z</time>
      </trkpt>
      <trkpt lat="44.99098" lon="4.52031">
        <ele>435</ele>
        <time>2015-10-31T08:24:30Z</time>
      </trkpt>
      <trkpt lat="44.99106" lon="4.52026">
        <ele>435</ele>
        <time>2015-10-31T08:24:35Z</time>
      </trkpt>
      <trkpt lat="44.99111" lon="4.52016">
        <ele>432</ele>
        <time>2015-10-31T08:24:48Z</time>
      </trkpt>
      <trkpt lat="44.99115" lon="4.52009">
        <ele>430</ele>
        <time>2015-10-31T08:24:55Z</time>
      </trkpt>
      <trkpt lat="44.99122" lon="4.52">
        <ele>428</ele>
        <time>2015-10-31T08:25:00Z</time>
      </trkpt>
      <trkpt lat="44.99127" lon="4.51995">
        <ele>428</ele>
        <time>2015-10-31T08:25:04Z</time>
      </trkpt>
      <trkpt lat="44.99134" lon="4.51989">
        <ele>427</ele>
        <time>2015-10-31T08:25:08Z</time>
      </trkpt>
      <trkpt lat="44.99139" lon="4.51983">
        <ele>428</ele>
        <time>2015-10-31T08:25:12Z</time>
      </trkpt>
      <trkpt lat="44.99144" lon="4.51975">
        <ele>423</ele>
        <time>2015-10-31T08:25:29Z</time>
      </trkpt>
      <trkpt lat="44.9915" lon="4.51967">
        <ele>422</ele>
        <time>2015-10-31T08:25:36Z</time>
      </trkpt>
      <trkpt lat="44.99156" lon="4.51959">
        <ele>420</ele>
        <time>2015-10-31T08:25:41Z</time>
      </trkpt>
      <trkpt lat="44.99161" lon="4.51953">
        <ele>418</ele>
        <time>2015-10-31T08:25:45Z</time>
      </trkpt>
      <trkpt lat="44.99166" lon="4.51945">
        <ele>415</ele>
        <time>2015-10-31T08:25:50Z</time>
      </trkpt>
      <trkpt lat="44.99171" lon="4.51936">
        <ele>416</ele>
        <time>2015-10-31T08:25:55Z</time>
      </trkpt>
      <trkpt lat="44.99177" lon="4.51928">
        <ele>416</ele>
        <time>2015-10-31T08:26:00Z</time>
      </trkpt>
      <trkpt lat="44.99182" lon="4.51921">
        <ele>416</ele>
        <time>2015-10-31T08:26:04Z</time>
      </trkpt>
      <trkpt lat="44.99185" lon="4.51918">
        <ele>415</ele>
        <time>2015-10-31T08:26:06Z</time>
      </trkpt>
      <trkpt lat="44.99203" lon="4.51893">
        <ele>418</ele>
        <time>2015-10-31T08:26:21Z</time>
      </trkpt>
      <trkpt lat="44.99209" lon="4.51887">
        <ele>417</ele>
        <time>2015-10-31T08:26:32Z</time>
      </trkpt>
      <trkpt lat="44.99215" lon="4.51878">
        <ele>416</ele>
        <time>2015-10-31T08:26:35Z</time>
      </trkpt>
      <trkpt lat="44.99228" lon="4.51871">
        <ele>399</ele>
        <time>2015-10-31T08:26:56Z</time>
      </trkpt>
      <trkpt lat="44.99234" lon="4.51877">
        <ele>398</ele>
        <time>2015-10-31T08:27:02Z</time>
      </trkpt>
      <trkpt lat="44.99241" lon="4.51884">
        <ele>402</ele>
        <time>2015-10-31T08:27:10Z</time>
      </trkpt>
      <trkpt lat="44.99246" lon="4.5189">
        <ele>405</ele>
        <time>2015-10-31T08:27:16Z</time>
      </trkpt>
      <trkpt lat="44.99251" lon="4.51895">
        <ele>406</ele>
        <time>2015-10-31T08:27:20Z</time>
      </trkpt>
      <trkpt lat="44.99257" lon="4.51901">
        <ele>406</ele>
        <time>2015-10-31T08:27:24Z</time>
      </trkpt>
      <trkpt lat="44.99264" lon="4.51906">
        <ele>407</ele>
        <time>2015-10-31T08:27:28Z</time>
      </trkpt>
      <trkpt lat="44.99271" lon="4.51913">
        <ele>407</ele>
        <time>2015-10-31T08:27:33Z</time>
      </trkpt>
      <trkpt lat="44.99276" lon="4.51918">
        <ele>408</ele>
        <time>2015-10-31T08:27:36Z</time>
      </trkpt>
      <trkpt lat="44.99282" lon="4.51922">
        <ele>410</ele>
        <time>2015-10-31T08:27:40Z</time>
      </trkpt>
      <trkpt lat="44.9929" lon="4.51928">
        <ele>412</ele>
        <time>2015-10-31T08:27:46Z</time>
      </trkpt>
      <trkpt lat="44.99295" lon="4.51938">
        <ele>415</ele>
        <time>2015-10-31T08:27:53Z</time>
      </trkpt>
      <trkpt lat="44.99299" lon="4.51944">
        <ele>416</ele>
        <time>2015-10-31T08:27:56Z</time>
      </trkpt>
      <trkpt lat="44.99304" lon="4.51951">
        <ele>417</ele>
        <time>2015-10-31T08:28:00Z</time>
      </trkpt>
      <trkpt lat="44.99311" lon="4.51955">
        <ele>417</ele>
        <time>2015-10-31T08:28:04Z</time>
      </trkpt>
      <trkpt lat="44.99319" lon="4.51955">
        <ele>417</ele>
        <time>2015-10-31T08:28:09Z</time>
      </trkpt>
      <trkpt lat="44.99328" lon="4.5195">
        <ele>418</ele>
        <time>2015-10-31T08:28:14Z</time>
      </trkpt>
      <trkpt lat="44.99327" lon="4.5194">
        <ele>414</ele>
        <time>2015-10-31T08:28:18Z</time>
      </trkpt>
      <trkpt lat="44.99324" lon="4.51929">
        <ele>412</ele>
        <time>2015-10-31T08:28:22Z</time>
      </trkpt>
      <trkpt lat="44.99323" lon="4.51918">
        <ele>413</ele>
        <time>2015-10-31T08:28:27Z</time>
      </trkpt>
      <trkpt lat="44.99322" lon="4.51908">
        <ele>413</ele>
        <time>2015-10-31T08:28:33Z</time>
      </trkpt>
      <trkpt lat="44.99323" lon="4.51899">
        <ele>412</ele>
        <time>2015-10-31T08:28:37Z</time>
      </trkpt>
      <trkpt lat="44.99321" lon="4.5189">
        <ele>409</ele>
        <time>2015-10-31T08:28:42Z</time>
      </trkpt>
      <trkpt lat="44.9932" lon="4.51881">
        <ele>406</ele>
        <time>2015-10-31T08:28:47Z</time>
      </trkpt>
      <trkpt lat="44.9932" lon="4.5187">
        <ele>404</ele>
        <time>2015-10-31T08:28:52Z</time>
      </trkpt>
      <trkpt lat="44.9932" lon="4.5186">
        <ele>404</ele>
        <time>2015-10-31T08:28:56Z</time>
      </trkpt>
      <trkpt lat="44.99322" lon="4.51849">
        <ele>403</ele>
        <time>2015-10-31T08:29:02Z</time>
      </trkpt>
      <trkpt lat="44.99322" lon="4.51839">
        <ele>402</ele>
        <time>2015-10-31T08:29:08Z</time>
      </trkpt>
      <trkpt lat="44.99322" lon="4.5183">
        <ele>401</ele>
        <time>2015-10-31T08:29:13Z</time>
      </trkpt>
      <trkpt lat="44.99321" lon="4.51819">
        <ele>401</ele>
        <time>2015-10-31T08:29:19Z</time>
      </trkpt>
      <trkpt lat="44.9932" lon="4.51808">
        <ele>401</ele>
        <time>2015-10-31T08:29:25Z</time>
      </trkpt>
      <trkpt lat="44.99319" lon="4.518">
        <ele>401</ele>
        <time>2015-10-31T08:29:29Z</time>
      </trkpt>
      <trkpt lat="44.9932" lon="4.51793">
        <ele>412</ele>
        <time>2015-10-31T08:29:40Z</time>
      </trkpt>
      <trkpt lat="44.99316" lon="4.51779">
        <ele>414</ele>
        <time>2015-10-31T08:29:44Z</time>
      </trkpt>
      <trkpt lat="44.99317" lon="4.51767">
        <ele>417</ele>
        <time>2015-10-31T08:29:49Z</time>
      </trkpt>
      <trkpt lat="44.9932" lon="4.51757">
        <ele>418</ele>
        <time>2015-10-31T08:29:56Z</time>
      </trkpt>
      <trkpt lat="44.99322" lon="4.51747">
        <ele>420</ele>
        <time>2015-10-31T08:30:02Z</time>
      </trkpt>
      <trkpt lat="44.9932" lon="4.51736">
        <ele>420</ele>
        <time>2015-10-31T08:30:06Z</time>
      </trkpt>
      <trkpt lat="44.99316" lon="4.51727">
        <ele>420</ele>
        <time>2015-10-31T08:30:10Z</time>
      </trkpt>
      <trkpt lat="44.99319" lon="4.51715">
        <ele>419</ele>
        <time>2015-10-31T08:30:15Z</time>
      </trkpt>
      <trkpt lat="44.99323" lon="4.51712">
        <ele>419</ele>
        <time>2015-10-31T08:30:23Z</time>
      </trkpt>
      <trkpt lat="44.99329" lon="4.51703">
        <ele>420</ele>
        <time>2015-10-31T08:30:30Z</time>
      </trkpt>
      <trkpt lat="44.99333" lon="4.51692">
        <ele>420</ele>
        <time>2015-10-31T08:30:51Z</time>
      </trkpt>
      <trkpt lat="44.9934" lon="4.51687">
        <ele>416</ele>
        <time>2015-10-31T08:31:02Z</time>
      </trkpt>
      <trkpt lat="44.99349" lon="4.51687">
        <ele>412</ele>
        <time>2015-10-31T08:31:12Z</time>
      </trkpt>
      <trkpt lat="44.99353" lon="4.51688">
        <ele>409</ele>
        <time>2015-10-31T08:31:21Z</time>
      </trkpt>
      <trkpt lat="44.99353" lon="4.51688">
        <ele>409</ele>
        <time>2015-10-31T08:31:21Z</time>
      </trkpt>
    </trkseg>
  </trk>
</gpx>